Time;durP1;ratioP1;P1;durP2;ratioP2;P2;SDS_P1;SDS_P2;PMS_P1;PMS_P2;Temp;Humidity;BMP_temperature;BMP_pressure;BME280_temperature;BME280_humidity;BME280_pressure;Samples;Min_cycle;Max_cycle;Signal;HPM_P1;HPM_P2
2023/11/07 00:00:42;;;;;;;6.13;2.45;;;;;;;;;;4134213;28;20651;-61
2023/11/07 00:02:53;;;;;;;7.72;2.70;;;;;;;;;;4131237;28;20513;-61
2023/11/07 00:04:55;;;;;;;5.03;2.38;;;;;;;;;;4131008;28;20142;-61
2023/11/07 00:07:00;;;;;;;4.40;2.55;;;;;;;;;;4130357;28;20081;-61
2023/11/07 00:09:07;;;;;;;3.80;2.63;;;;;;;;;;4130489;28;20050;-61
2023/11/07 00:11:11;;;;;;;5.97;2.67;;;;;;;;;;4130672;28;20582;-61
2023/11/07 00:13:13;;;;;;;4.03;2.73;;;;;;;;;;4130585;28;20042;-61
2023/11/07 00:15:18;;;;;;;4.50;2.88;;;;;;;;;;4130471;28;20296;-61
2023/11/07 00:17:20;;;;;;;3.65;2.95;;;;;;;;;;4119857;28;20046;-61
2023/11/07 00:19:22;;;;;;;4.10;3.05;;;;;;;;;;4114631;28;20046;-61
2023/11/07 00:21:26;;;;;;;3.10;1.88;;;;;;;;;;4114693;28;20122;-61
2023/11/07 00:23:29;;;;;;;8.10;2.80;;;;;;;;;;4114426;28;20046;-61
2023/11/07 00:25:32;;;;;;;4.40;2.00;;;;;;;;;;4119430;28;20388;-60
2023/11/07 00:27:36;;;;;;;4.88;2.58;;;;;;;;;;4130437;28;20054;-61
2023/11/07 00:29:39;;;;;;;3.20;2.70;;;;;;;;;;4130571;28;20121;-61
2023/11/07 00:31:41;;;;;;;4.00;3.25;;;;;;;;;;4133042;28;20518;-61
2023/11/07 00:33:42;;;;;;;6.00;2.10;;;;;;;;;;4133440;28;20046;-61
2023/11/07 00:35:45;;;;;;;7.50;2.42;;;;;;;;;;4133303;28;20356;-61
2023/11/07 00:37:46;;;;;;;3.63;3.40;;;;;;;;;;4133522;28;20125;-61
2023/11/07 00:39:48;;;;;;;3.20;2.57;;;;;;;;;;4132819;28;20281;-60
2023/11/07 00:41:49;;;;;;;3.40;1.97;;;;;;;;;;4133399;28;20422;-61
2023/11/07 00:43:52;;;;;;;3.38;2.08;;;;;;;;;;4133513;28;20745;-61
2023/11/07 00:45:54;;;;;;;3.53;2.85;;;;;;;;;;4133132;28;20046;-61
2023/11/07 00:47:56;;;;;;;;;;;;;;;;;;4133449;28;20434;-61
2023/11/07 00:49:59;;;;;;;2.00;1.85;;;;;;;;;;4133421;28;20500;-61
2023/11/07 00:52:01;;;;;;;1.98;1.70;;;;;;;;;;4133177;28;20138;-60
2023/11/07 00:54:04;;;;;;;3.47;2.35;;;;;;;;;;4133015;28;20034;-60
2023/11/07 00:56:08;;;;;;;4.00;3.63;;;;;;;;;;4136373;28;20036;-61
2023/11/07 00:58:09;;;;;;;4.95;2.60;;;;;;;;;;4132983;28;20050;-61
2023/11/07 01:00:12;;;;;;;3.40;1.70;;;;;;;;;;4132827;28;20046;-61
2023/11/07 01:02:14;;;;;;;1.88;1.77;;;;;;;;;;4133058;28;20309;-61
2023/11/07 01:04:15;;;;;;;3.23;2.70;;;;;;;;;;4133365;28;20093;-61
2023/11/07 01:06:17;;;;;;;1.77;1.77;;;;;;;;;;4089478;28;1273544;-61
2023/11/07 01:08:20;;;;;;;3.83;3.05;;;;;;;;;;4133881;28;20046;-61
2023/11/07 01:10:21;;;;;;;2.42;2.22;;;;;;;;;;4133943;28;20076;-60
2023/11/07 01:12:23;;;;;;;2.45;2.25;;;;;;;;;;4132513;28;20046;-61
2023/11/07 01:14:25;;;;;;;3.90;1.95;;;;;;;;;;4117902;28;20093;-61
2023/11/07 01:16:26;;;;;;;2.58;2.20;;;;;;;;;;4117849;28;20559;-60
2023/11/07 01:18:28;;;;;;;5.57;2.92;;;;;;;;;;4117705;28;20678;-61
2023/11/07 01:20:34;;;;;;;6.10;2.92;;;;;;;;;;4117954;28;20495;-61
2023/11/07 01:22:36;;;;;;;2.63;2.35;;;;;;;;;;4117912;28;20550;-61
2023/11/07 01:24:37;;;;;;;2.95;2.00;;;;;;;;;;4117692;28;20631;-61
2023/11/07 01:26:39;;;;;;;3.63;2.37;;;;;;;;;;4133286;28;20080;-61
2023/11/07 01:28:41;;;;;;;1.80;1.70;;;;;;;;;;4133741;28;20403;-61
2023/11/07 01:30:42;;;;;;;3.00;2.30;;;;;;;;;;4133760;28;20042;-61
2023/11/07 01:32:45;;;;;;;3.28;2.97;;;;;;;;;;4133593;28;20124;-61
2023/11/07 01:34:47;;;;;;;7.00;2.50;;;;;;;;;;4133378;28;20426;-60
2023/11/07 01:36:48;;;;;;;9.40;2.80;;;;;;;;;;4133576;28;20513;-60
2023/11/07 01:38:50;;;;;;;3.13;2.83;;;;;;;;;;4133364;28;20038;-61
2023/11/07 01:40:55;;;;;;;2.60;1.60;;;;;;;;;;4116437;28;20323;-61
2023/11/07 01:42:56;;;;;;;2.80;1.57;;;;;;;;;;4133567;28;20088;-60
2023/11/07 01:44:59;;;;;;;4.83;2.43;;;;;;;;;;4133381;28;20042;-60
2023/11/07 01:47:02;;;;;;;1.60;1.50;;;;;;;;;;4133184;28;20301;-60
2023/11/07 01:49:04;;;;;;;1.63;1.30;;;;;;;;;;4132246;28;20038;-61
2023/11/07 01:51:06;;;;;;;3.50;1.73;;;;;;;;;;4133458;28;20057;-60
2023/11/07 01:53:09;;;;;;;3.22;1.70;;;;;;;;;;4136358;28;20129;-61
2023/11/07 01:55:16;;;;;;;3.03;1.40;;;;;;;;;;4132942;28;20085;-61
2023/11/07 01:57:19;;;;;;;1.50;1.40;;;;;;;;;;4133300;28;20053;-61
2023/11/07 01:59:22;;;;;;;1.33;1.27;;;;;;;;;;4132165;28;20057;-60
2023/11/07 02:01:24;;;;;;;3.38;1.77;;;;;;;;;;4133393;28;20046;-61
2023/11/07 02:03:26;;;;;;;;;;;;;;;;;;4133309;28;20394;-60
2023/11/07 02:05:29;;;;;;;2.03;1.67;;;;;;;;;;4132887;28;20017;-60
2023/11/07 02:07:30;;;;;;;3.30;2.45;;;;;;;;;;4133212;28;20072;-61
2023/11/07 02:09:32;;;;;;;3.07;2.73;;;;;;;;;;4129943;28;20061;-61
2023/11/07 02:11:34;;;;;;;2.97;2.78;;;;;;;;;;4133367;28;20289;-61
2023/11/07 02:13:36;;;;;;;2.22;2.03;;;;;;;;;;4133098;28;20502;-60
2023/11/07 02:15:38;;;;;;;4.28;1.90;;;;;;;;;;4133186;28;20045;-61
2023/11/07 02:17:40;;;;;;;2.25;2.10;;;;;;;;;;4133267;28;20042;-61
2023/11/07 02:19:42;;;;;;;2.47;2.33;;;;;;;;;;4133198;28;20042;-61
2023/11/07 02:21:45;;;;;;;1.92;1.85;;;;;;;;;;4132435;28;20650;-61
2023/11/07 02:23:47;;;;;;;1.75;1.67;;;;;;;;;;4132677;28;20041;-60
2023/11/07 02:25:51;;;;;;;2.92;2.47;;;;;;;;;;4132980;28;20046;-61
2023/11/07 02:27:53;;;;;;;2.30;2.10;;;;;;;;;;4132869;28;20121;-60
2023/11/07 02:29:55;;;;;;;5.23;2.43;;;;;;;;;;4132746;28;20046;-61
2023/11/07 02:31:56;;;;;;;6.18;2.65;;;;;;;;;;4132730;28;20288;-61
2023/11/07 02:33:58;;;;;;;2.05;2.03;;;;;;;;;;4132733;28;20050;-61
2023/11/07 02:36:00;;;;;;;2.10;1.98;;;;;;;;;;4115339;28;20435;-60
2023/11/07 02:38:02;;;;;;;2.30;2.17;;;;;;;;;;4132847;28;20054;-61
2023/11/07 02:40:06;;;;;;;1.90;1.80;;;;;;;;;;4132400;28;20034;-61
2023/11/07 02:42:08;;;;;;;2.22;1.63;;;;;;;;;;4132425;28;20518;-61
2023/11/07 02:44:11;;;;;;;4.47;1.75;;;;;;;;;;4132598;28;20035;-60
2023/11/07 02:46:13;;;;;;;2.75;2.55;;;;;;;;;;4132271;28;20042;-62
2023/11/07 02:48:14;;;;;;;3.27;2.93;;;;;;;;;;4134373;28;20045;-61
2023/11/07 02:50:17;;;;;;;2.55;2.25;;;;;;;;;;4133666;28;20297;-61
2023/11/07 02:52:20;;;;;;;;;;;;;;;;;;4132583;28;20070;-61
2023/11/07 02:54:22;;;;;;;3.22;2.33;;;;;;;;;;4131702;28;20374;-60
2023/11/07 02:56:24;;;;;;;4.10;2.45;;;;;;;;;;4132678;28;20391;-61
2023/11/07 02:58:25;;;;;;;6.65;3.15;;;;;;;;;;4132404;28;20082;-61
2023/11/07 03:00:27;;;;;;;2.47;2.25;;;;;;;;;;4132338;28;20042;-61
2023/11/07 03:02:29;;;;;;;3.33;2.47;;;;;;;;;;4132340;28;20088;-61
2023/11/07 03:04:30;;;;;;;6.17;3.17;;;;;;;;;;4132170;28;20049;-61
2023/11/07 03:06:32;;;;;;;5.30;2.60;;;;;;;;;;4117428;28;20064;-61
2023/11/07 03:08:36;;;;;;;3.38;2.92;;;;;;;;;;4120552;28;20494;-61
2023/11/07 03:10:37;;;;;;;5.88;3.15;;;;;;;;;;4132003;28;20046;-61
2023/11/07 03:12:39;;;;;;;4.30;3.03;;;;;;;;;;4132193;28;20129;-61
2023/11/07 03:14:42;;;;;;;6.43;3.50;;;;;;;;;;4132023;28;20717;-61
2023/11/07 03:16:45;;;;;;;6.07;3.15;;;;;;;;;;4132123;28;20077;-61
2023/11/07 03:18:47;;;;;;;8.48;3.53;;;;;;;;;;4132022;28;20046;-61
2023/11/07 03:20:48;;;;;;;6.88;3.00;;;;;;;;;;4132061;28;20042;-61
2023/11/07 03:22:50;;;;;;;2.57;2.40;;;;;;;;;;4131541;28;20395;-61
2023/11/07 03:24:52;;;;;;;2.77;2.60;;;;;;;;;;4131966;28;20373;-61
2023/11/07 03:26:53;;;;;;;3.07;2.87;;;;;;;;;;4131878;28;20062;-61
2023/11/07 03:28:55;;;;;;;4.35;2.78;;;;;;;;;;4131834;28;20296;-61
2023/11/07 03:30:57;;;;;;;3.70;3.10;;;;;;;;;;4131796;28;20058;-61
2023/11/07 03:32:58;;;;;;;3.90;2.33;;;;;;;;;;4131927;28;20046;-61
2023/11/07 03:35:01;;;;;;;3.88;3.00;;;;;;;;;;4131700;28;20097;-61
2023/11/07 03:37:03;;;;;;;4.22;3.58;;;;;;;;;;4132026;28;20574;-61
2023/11/07 03:39:06;;;;;;;4.45;3.35;;;;;;;;;;4131614;28;20054;-61
2023/11/07 03:41:08;;;;;;;3.17;2.88;;;;;;;;;;4131672;28;20459;-61
2023/11/07 03:43:10;;;;;;;;;;;;;;;;;;4132145;28;20038;-60
2023/11/07 03:45:11;;;;;;;8.13;3.03;;;;;;;;;;4134826;28;19953;-61
2023/11/07 03:47:14;;;;;;;5.70;2.63;;;;;;;;;;4121676;28;20529;-62
2023/11/07 03:49:16;;;;;;;4.53;2.85;;;;;;;;;;4115486;28;20090;-61
2023/11/07 03:51:18;;;;;;;5.03;3.15;;;;;;;;;;4128822;28;20042;-61
2023/11/07 03:53:20;;;;;;;4.00;2.77;;;;;;;;;;4131396;28;20042;-61
2023/11/07 03:55:21;;;;;;;3.95;2.15;;;;;;;;;;4131164;28;20439;-61
2023/11/07 03:57:23;;;;;;;6.45;2.92;;;;;;;;;;4114280;28;20405;-61
2023/11/07 03:59:25;;;;;;;5.05;3.10;;;;;;;;;;4131488;28;20499;-61
2023/11/07 04:01:34;;;;;;;3.63;3.33;;;;;;;;;;4127466;28;20395;-62
2023/11/07 04:03:36;;;;;;;3.35;2.97;;;;;;;;;;4115420;28;20039;-61
2023/11/07 04:05:38;;;;;;;6.18;2.13;;;;;;;;;;4124332;28;20510;-62
2023/11/07 04:07:40;;;;;;;3.25;2.63;;;;;;;;;;4131524;28;20533;-61
2023/11/07 04:09:43;;;;;;;3.13;2.83;;;;;;;;;;4126058;28;20453;-61
2023/11/07 04:11:47;;;;;;;6.15;2.47;;;;;;;;;;4131751;28;20038;-61
2023/11/07 04:13:50;;;;;;;2.00;1.90;;;;;;;;;;4131345;28;20046;-61
2023/11/07 04:15:52;;;;;;;;;;;;;;;;;;4131739;28;20038;-61
2023/11/07 04:17:53;;;;;;;4.00;2.80;;;;;;;;;;4131662;28;20333;-61
2023/11/07 04:19:55;;;;;;;4.93;2.92;;;;;;;;;;4127861;28;20042;-61
2023/11/07 04:21:57;;;;;;;2.20;1.97;;;;;;;;;;4131182;28;20093;-61
2023/11/07 04:23:59;;;;;;;2.97;2.50;;;;;;;;;;4131621;28;20031;-61
2023/11/07 04:26:02;;;;;;;3.28;2.85;;;;;;;;;;4131289;28;20054;-61
2023/11/07 04:28:04;;;;;;;2.40;2.20;;;;;;;;;;4131020;28;20569;-61
2023/11/07 04:30:06;;;;;;;6.73;2.93;;;;;;;;;;4131032;28;20034;-61
2023/11/07 04:32:08;;;;;;;2.97;2.75;;;;;;;;;;4131285;28;20430;-60
2023/11/07 04:34:10;;;;;;;5.68;2.47;;;;;;;;;;4131516;28;20050;-61
2023/11/07 04:36:13;;;;;;;3.42;2.55;;;;;;;;;;4131657;28;20042;-61
2023/11/07 04:38:16;;;;;;;5.25;1.92;;;;;;;;;;4131231;28;20097;-61
2023/11/07 04:40:18;;;;;;;4.13;3.90;;;;;;;;;;4131228;28;20085;-61
2023/11/07 04:42:20;;;;;;;;;;;;;;;;;;4134652;28;20097;-61
2023/11/07 04:44:22;;;;;;;2.78;2.63;;;;;;;;;;4131043;28;20378;-61
2023/11/07 04:46:23;;;;;;;6.23;3.50;;;;;;;;;;4129872;28;20368;-61
2023/11/07 04:48:25;;;;;;;3.30;3.00;;;;;;;;;;4116851;28;20049;-61
2023/11/07 04:50:27;;;;;;;2.92;2.67;;;;;;;;;;4120589;28;20078;-61
2023/11/07 04:52:29;;;;;;;4.13;2.78;;;;;;;;;;4114189;28;20511;-61
2023/11/07 04:54:30;;;;;;;2.40;2.30;;;;;;;;;;4097636;29;20051;-61
2023/11/07 04:56:32;;;;;;;3.17;2.65;;;;;;;;;;4113931;28;20031;-61
2023/11/07 04:58:34;;;;;;;4.20;2.10;;;;;;;;;;4120134;28;20042;-61
2023/11/07 05:00:56;;;;;;;3.10;2.83;;;;;;;;;;4114910;28;20050;-60
2023/11/07 05:02:58;;;;;;;4.63;2.27;;;;;;;;;;4115164;28;20039;-61
2023/11/07 05:05:00;;;;;;;5.72;3.33;;;;;;;;;;4121033;28;20352;-61
2023/11/07 05:07:01;;;;;;;7.35;3.28;;;;;;;;;;4129975;28;20545;-61
2023/11/07 05:09:07;;;;;;;3.27;2.90;;;;;;;;;;4125208;28;20101;-61
2023/11/07 05:11:10;;;;;;;7.22;2.65;;;;;;;;;;4121114;28;20407;-61
2023/11/07 05:13:13;;;;;;;2.13;1.92;;;;;;;;;;4115007;28;20047;-61
2023/11/07 05:15:15;;;;;;;5.50;2.63;;;;;;;;;;4114930;28;20067;-61
2023/11/07 05:17:17;;;;;;;5.20;2.28;;;;;;;;;;4119512;28;20039;-62
2023/11/07 05:19:19;;;;;;;2.67;2.00;;;;;;;;;;4129854;28;20040;-61
2023/11/07 05:21:23;;;;;;;5.32;3.70;;;;;;;;;;4133409;28;20043;-61
2023/11/07 05:23:25;;;;;;;3.00;2.90;;;;;;;;;;4133380;28;20042;-61
2023/11/07 05:25:26;;;;;;;3.67;3.33;;;;;;;;;;4133295;28;20319;-61
2023/11/07 05:27:28;;;;;;;4.97;2.87;;;;;;;;;;4119613;28;20298;-61
2023/11/07 05:29:30;;;;;;;3.47;2.37;;;;;;;;;;4133147;28;20035;-60
2023/11/07 05:31:31;;;;;;;6.40;2.80;;;;;;;;;;4133725;28;20281;-61
2023/11/07 05:33:34;;;;;;;4.87;2.93;;;;;;;;;;4133378;28;20038;-61
2023/11/07 05:35:36;;;;;;;5.65;3.17;;;;;;;;;;4115803;28;20298;-61
2023/11/07 05:37:39;;;;;;;4.32;2.40;;;;;;;;;;4136370;28;20354;-61
2023/11/07 05:39:44;;;;;;;6.00;3.22;;;;;;;;;;4123331;28;20126;-61
2023/11/07 05:41:46;;;;;;;2.83;2.53;;;;;;;;;;4133527;28;20035;-61
2023/11/07 05:43:47;;;;;;;2.63;2.42;;;;;;;;;;4133366;28;20558;-61
2023/11/07 05:45:49;;;;;;;7.47;3.23;;;;;;;;;;4133501;28;20046;-61
2023/11/07 05:47:51;;;;;;;3.63;2.70;;;;;;;;;;4131615;28;20054;-61
2023/11/07 05:49:52;;;;;;;4.50;2.72;;;;;;;;;;4133551;28;20125;-60
2023/11/07 05:51:54;;;;;;;3.22;2.97;;;;;;;;;;4133312;28;20049;-61
2023/11/07 05:53:56;;;;;;;3.37;3.00;;;;;;;;;;4116180;28;20046;-61
2023/11/07 05:55:57;;;;;;;3.38;2.75;;;;;;;;;;4119805;28;20081;-61
2023/11/07 05:57:59;;;;;;;3.08;2.88;;;;;;;;;;4121667;28;20042;-61
2023/11/07 06:00:01;;;;;;;7.33;3.07;;;;;;;;;;4131389;28;20092;-61
2023/11/07 06:02:03;;;;;;;2.63;1.60;;;;;;;;;;4133280;28;20285;-61
2023/11/07 06:04:06;;;;;;;3.92;3.60;;;;;;;;;;4133227;28;20049;-61
2023/11/07 06:06:08;;;;;;;6.53;3.47;;;;;;;;;;4132777;28;20144;-60
2023/11/07 06:08:10;;;;;;;4.30;3.05;;;;;;;;;;4132850;28;20410;-61
2023/11/07 06:10:13;;;;;;;4.20;2.85;;;;;;;;;;4132602;28;20047;-61
2023/11/07 06:12:14;;;;;;;2.47;2.20;;;;;;;;;;4132805;28;20510;-61
2023/11/07 06:14:16;;;;;;;2.27;2.07;;;;;;;;;;4133040;28;20069;-61
2023/11/07 06:16:18;;;;;;;4.63;3.17;;;;;;;;;;4132820;28;20297;-61
2023/11/07 06:18:21;;;;;;;5.15;3.13;;;;;;;;;;4132508;28;20289;-61
2023/11/07 06:20:24;;;;;;;7.60;2.95;;;;;;;;;;4132910;28;20062;-61
2023/11/07 06:22:26;;;;;;;4.00;3.67;;;;;;;;;;4132739;28;20047;-62
2023/11/07 06:24:28;;;;;;;2.90;2.65;;;;;;;;;;4129188;28;20077;-60
2023/11/07 06:26:30;;;;;;;7.85;2.70;;;;;;;;;;4129675;28;20053;-64
2023/11/07 06:28:31;;;;;;;4.97;3.55;;;;;;;;;;4131525;28;20049;-64
2023/11/07 06:30:34;;;;;;;6.00;2.80;;;;;;;;;;4132307;28;20042;-64
2023/11/07 06:32:37;;;;;;;2.40;2.28;;;;;;;;;;4129903;28;20062;-64
2023/11/07 06:34:40;;;;;;;2.28;2.15;;;;;;;;;;4135395;28;20048;-64
2023/11/07 06:36:43;;;;;;;3.08;2.53;;;;;;;;;;4132251;28;20491;-65
2023/11/07 06:38:45;;;;;;;3.58;3.30;;;;;;;;;;4114295;28;20043;-64
2023/11/07 06:40:47;;;;;;;6.32;4.47;;;;;;;;;;4131622;28;20418;-64
2023/11/07 06:42:48;;;;;;;4.17;3.33;;;;;;;;;;4130057;28;20052;-64
2023/11/07 06:44:51;;;;;;;1.98;1.67;;;;;;;;;;4132211;28;20046;-64
2023/11/07 06:46:53;;;;;;;2.97;2.88;;;;;;;;;;4128636;28;20065;-65
2023/11/07 06:48:56;;;;;;;3.00;2.78;;;;;;;;;;4131828;28;20042;-65
2023/11/07 06:51:02;;;;;;;2.55;2.42;;;;;;;;;;4120609;28;20050;-65
2023/11/07 06:53:04;;;;;;;13.25;2.38;;;;;;;;;;4115382;28;20070;-65
2023/11/07 06:55:06;;;;;;;9.38;2.95;;;;;;;;;;4115983;28;20125;-64
2023/11/07 06:57:09;;;;;;;33.50;3.92;;;;;;;;;;4116101;28;20039;-65
2023/11/07 06:59:11;;;;;;;48.72;5.22;;;;;;;;;;4116188;28;20126;-65
2023/11/07 07:01:14;;;;;;;173.20;10.05;;;;;;;;;;4098826;29;20066;-64
2023/11/07 07:03:16;;;;;;;157.32;9.27;;;;;;;;;;4115826;28;20050;-65
2023/11/07 07:05:18;;;;;;;150.77;9.32;;;;;;;;;;4115736;28;20049;-65
2023/11/07 07:07:20;;;;;;;116.95;6.50;;;;;;;;;;4116003;28;20467;-65
2023/11/07 07:09:21;;;;;;;16.73;3.28;;;;;;;;;;4125214;28;20042;-64
2023/11/07 07:11:24;;;;;;;12.67;2.43;;;;;;;;;;4131903;28;20042;-64
2023/11/07 07:13:26;;;;;;;4.70;2.55;;;;;;;;;;4132320;28;20394;-64
2023/11/07 07:15:28;;;;;;;3.40;2.30;;;;;;;;;;4132179;28;20046;-65
2023/11/07 07:17:29;;;;;;;6.63;2.60;;;;;;;;;;4131906;28;20042;-64
2023/11/07 07:19:31;;;;;;;5.78;2.47;;;;;;;;;;4132029;28;20042;-64
2023/11/07 07:21:37;;;;;;;6.13;3.65;;;;;;;;;;4132115;28;20048;-64
2023/11/07 07:23:42;;;;;;;4.18;3.78;;;;;;;;;;4131925;28;20046;-65
2023/11/07 07:25:45;;;;;;;2.78;2.67;;;;;;;;;;4131828;28;20035;-64
2023/11/07 07:27:47;;;;;;;2.92;2.60;;;;;;;;;;4131674;28;20092;-64
2023/11/07 07:29:49;;;;;;;;;;;;;;;;;;4135284;28;20088;-65
2023/11/07 07:31:51;;;;;;;3.92;3.40;;;;;;;;;;4131547;28;20370;-64
2023/11/07 07:33:54;;;;;;;6.57;2.25;;;;;;;;;;4132177;28;20038;-64
2023/11/07 07:36:02;;;;;;;3.22;2.92;;;;;;;;;;4131686;28;20034;-64
2023/11/07 07:38:04;;;;;;;2.60;2.35;;;;;;;;;;4131616;28;20486;-64
2023/11/07 07:40:08;;;;;;;3.10;2.55;;;;;;;;;;4131221;28;20066;-64
2023/11/07 07:42:10;;;;;;;4.03;3.80;;;;;;;;;;4131633;28;20046;-64
2023/11/07 07:44:12;;;;;;;3.55;3.45;;;;;;;;;;4131541;28;20085;-64
2023/11/07 07:46:15;;;;;;;3.42;3.28;;;;;;;;;;4129162;28;20125;-64
2023/11/07 07:48:17;;;;;;;4.53;2.50;;;;;;;;;;4114229;28;20098;-64
2023/11/07 07:50:19;;;;;;;3.15;2.88;;;;;;;;;;4115693;28;20396;-64
2023/11/07 07:52:22;;;;;;;6.50;3.30;;;;;;;;;;4115442;28;20050;-64
2023/11/07 07:54:25;;;;;;;10.45;3.72;;;;;;;;;;4115791;28;20075;-64
2023/11/07 07:56:48;;;;;;;3.72;3.25;;;;;;;;;;4115505;28;20411;-64
2023/11/07 07:58:49;;;;;;;5.70;2.67;;;;;;;;;;4115632;28;20034;-64
2023/11/07 08:00:52;;;;;;;3.77;3.67;;;;;;;;;;4115183;28;20046;-64
2023/11/07 08:02:54;;;;;;;4.00;3.05;;;;;;;;;;4115574;28;20039;-64
2023/11/07 08:04:56;;;;;;;3.10;2.90;;;;;;;;;;4115347;28;20042;-64
2023/11/07 08:06:58;;;;;;;5.60;3.78;;;;;;;;;;4115131;28;20137;-64
2023/11/07 08:09:00;;;;;;;3.57;2.73;;;;;;;;;;4121555;28;20065;-64
2023/11/07 08:11:01;;;;;;;3.10;2.30;;;;;;;;;;4131247;28;20769;-64
2023/11/07 08:13:06;;;;;;;3.72;2.58;;;;;;;;;;4131363;28;20548;-63
2023/11/07 08:15:10;;;;;;;2.38;2.28;;;;;;;;;;4131309;28;20042;-63
2023/11/07 08:17:11;;;;;;;3.95;3.65;;;;;;;;;;4131234;28;20035;-64
2023/11/07 08:19:13;;;;;;;3.45;3.25;;;;;;;;;;4131575;28;20394;-64
2023/11/07 08:21:15;;;;;;;2.63;2.53;;;;;;;;;;4131252;28;20034;-63
2023/11/07 08:23:17;;;;;;;6.00;1.63;;;;;;;;;;4131370;28;20074;-63
2023/11/07 08:25:18;;;;;;;5.20;2.42;;;;;;;;;;4131443;28;20038;-63
2023/11/07 08:27:22;;;;;;;3.23;3.10;;;;;;;;;;4134444;28;20129;-63
2023/11/07 08:29:23;;;;;;;2.30;2.10;;;;;;;;;;4131431;28;20043;-64
2023/11/07 08:31:25;;;;;;;3.50;2.83;;;;;;;;;;4113905;28;20061;-62
2023/11/07 08:33:27;;;;;;;3.35;3.15;;;;;;;;;;4131164;28;20289;-63
2023/11/07 08:35:29;;;;;;;3.00;2.80;;;;;;;;;;4131104;28;20050;-63
2023/11/07 08:37:31;;;;;;;4.30;1.50;;;;;;;;;;4131192;28;20434;-63
2023/11/07 08:39:33;;;;;;;2.17;1.85;;;;;;;;;;4131233;28;20569;-63
2023/11/07 08:41:36;;;;;;;2.05;1.63;;;;;;;;;;4131323;28;20109;-63
2023/11/07 08:43:38;;;;;;;6.03;3.55;;;;;;;;;;4119711;28;20254;-63
2023/11/07 08:45:40;;;;;;;5.70;3.53;;;;;;;;;;4114980;28;20045;-63
2023/11/07 08:47:44;;;;;;;2.55;2.45;;;;;;;;;;4114816;28;20290;-63
2023/11/07 08:49:46;;;;;;;10.18;2.33;;;;;;;;;;4115056;28;20106;-62
2023/11/07 08:51:51;;;;;;;6.35;2.53;;;;;;;;;;4116548;28;20100;-63
2023/11/07 08:53:55;;;;;;;1.55;1.45;;;;;;;;;;4118229;28;20050;-62
2023/11/07 08:55:57;;;;;;;2.15;1.85;;;;;;;;;;4118241;28;20038;-62
2023/11/07 08:57:58;;;;;;;3.90;1.83;;;;;;;;;;4117878;28;20053;-63
2023/11/07 09:00:00;;;;;;;1.65;1.55;;;;;;;;;;4118022;28;20046;-63
2023/11/07 09:02:02;;;;;;;3.50;1.40;;;;;;;;;;4118065;28;20043;-63
2023/11/07 09:04:09;;;;;;;3.60;1.97;;;;;;;;;;4117958;28;20181;-63
2023/11/07 09:06:11;;;;;;;1.80;1.70;;;;;;;;;;4117532;28;20297;-62
2023/11/07 09:08:12;;;;;;;1.95;1.23;;;;;;;;;;4117720;28;20043;-63
2023/11/07 09:10:14;;;;;;;3.37;1.40;;;;;;;;;;4133939;28;20061;-63
2023/11/07 09:12:16;;;;;;;1.50;1.40;;;;;;;;;;4133948;28;20300;-63
2023/11/07 09:14:18;;;;;;;2.55;1.77;;;;;;;;;;4133872;28;20046;-63
2023/11/07 09:16:20;;;;;;;2.25;1.67;;;;;;;;;;4133791;28;20048;-62
2023/11/07 09:18:22;;;;;;;3.70;2.40;;;;;;;;;;4133733;28;20477;-63
2023/11/07 09:20:24;;;;;;;2.50;1.60;;;;;;;;;;4133681;28;20049;-63
2023/11/07 09:22:25;;;;;;;2.47;1.23;;;;;;;;;;4130432;28;20476;-62
2023/11/07 09:24:27;;;;;;;3.43;1.40;;;;;;;;;;4133559;28;20101;-62
2023/11/07 09:26:29;;;;;;;1.10;1.10;;;;;;;;;;4133594;28;20351;-62
2023/11/07 09:28:30;;;;;;;6.03;1.38;;;;;;;;;;4133476;28;20066;-62
2023/11/07 09:30:33;;;;;;;3.60;1.37;;;;;;;;;;4133526;28;20038;-63
2023/11/07 09:32:35;;;;;;;2.33;1.00;;;;;;;;;;4116207;28;20047;-62
2023/11/07 09:34:39;;;;;;;;;;;;;;;;;;4133888;28;20045;-62
2023/11/07 09:36:41;;;;;;;1.20;1.10;;;;;;;;;;4133394;28;19988;-63
2023/11/07 09:38:44;;;;;;;2.38;1.00;;;;;;;;;;4131223;28;20050;-62
2023/11/07 09:40:53;;;;;;;1.60;1.35;;;;;;;;;;4117340;28;20525;-62
2023/11/07 09:42:55;;;;;;;1.27;1.27;;;;;;;;;;4132946;28;20046;-63
2023/11/07 09:44:58;;;;;;;3.22;1.17;;;;;;;;;;4133599;28;20070;-62
2023/11/07 09:46:59;;;;;;;2.65;1.60;;;;;;;;;;4133253;28;20085;-62
2023/11/07 09:49:01;;;;;;;4.90;2.05;;;;;;;;;;4133665;28;20056;-62
2023/11/07 09:51:04;;;;;;;1.20;1.20;;;;;;;;;;4133342;28;20046;-62
2023/11/07 09:53:07;;;;;;;2.17;1.25;;;;;;;;;;4133518;28;20039;-62
2023/11/07 09:55:10;;;;;;;1.17;1.17;;;;;;;;;;4133756;28;20121;-61
2023/11/07 09:57:13;;;;;;;3.03;1.00;;;;;;;;;;4133168;28;20043;-61
2023/11/07 09:59:15;;;;;;;;;;;;;;;;;;4133857;28;20446;-62
2023/11/07 10:01:17;;;;;;;1.20;1.02;;;;;;;;;;4133288;28;20444;-61
2023/11/07 10:03:21;;;;;;;1.45;1.10;;;;;;;;;;4132835;28;20465;-62
2023/11/07 10:05:24;;;;;;;;;;;;;;;;;;4115979;28;20156;-62
2023/11/07 10:07:26;;;;;;;2.20;1.05;;;;;;;;;;4133075;28;19922;-61
2023/11/07 10:09:31;;;;;;;2.75;1.40;;;;;;;;;;4133078;28;20386;-62
2023/11/07 10:11:43;;;;;;;3.90;1.20;;;;;;;;;;4132984;28;20499;-61
2023/11/07 10:14:00;;;;;;;1.50;1.40;;;;;;;;;;4133259;28;20455;-62
2023/11/07 10:16:08;;;;;;;1.70;1.70;;;;;;;;;;4133086;28;20128;-61
2023/11/07 10:18:13;;;;;;;2.30;1.27;;;;;;;;;;4134160;28;20042;-62
2023/11/07 10:20:15;;;;;;;4.55;1.60;;;;;;;;;;4134271;28;20503;-62
2023/11/07 10:22:17;;;;;;;1.30;1.20;;;;;;;;;;4132869;28;20038;-62
2023/11/07 10:24:19;;;;;;;3.28;1.75;;;;;;;;;;4132845;28;20285;-62
2023/11/07 10:26:20;;;;;;;2.55;1.73;;;;;;;;;;4132911;28;20061;-61
2023/11/07 10:28:22;;;;;;;2.60;2.50;;;;;;;;;;4132625;28;20049;-62
2023/11/07 10:30:45;;;;;;;4.45;3.72;;;;;;;;;;4132677;28;20066;-61
2023/11/07 10:32:47;;;;;;;9.25;4.38;;;;;;;;;;4132505;28;20465;-61
2023/11/07 10:34:49;;;;;;;;;;;;;;;;;;4132156;28;20116;-61
2023/11/07 10:36:50;;;;;;;5.30;1.92;;;;;;;;;;4116412;28;20111;-62
2023/11/07 10:38:53;;;;;;;2.88;2.33;;;;;;;;;;4116298;28;20388;-61
2023/11/07 10:40:54;;;;;;;4.00;1.63;;;;;;;;;;4116341;28;20388;-61
2023/11/07 10:42:56;;;;;;;2.38;1.48;;;;;;;;;;4132320;28;20049;-61
2023/11/07 10:45:05;;;;;;;3.58;1.42;;;;;;;;;;4132494;28;20454;-62
2023/11/07 10:47:07;;;;;;;4.85;1.48;;;;;;;;;;4132230;28;20038;-62
2023/11/07 10:49:11;;;;;;;2.00;1.23;;;;;;;;;;4129245;28;20038;-61
2023/11/07 10:51:13;;;;;;;2.65;1.00;;;;;;;;;;4131536;28;20438;-61
2023/11/07 10:53:16;;;;;;;1.35;1.23;;;;;;;;;;4131316;28;20472;-61
2023/11/07 10:55:18;;;;;;;1.85;1.42;;;;;;;;;;4129444;28;20043;-61
2023/11/07 10:57:28;;;;;;;1.50;1.17;;;;;;;;;;4132421;28;20487;-61
2023/11/07 10:59:35;;;;;;;1.50;1.40;;;;;;;;;;4132312;28;20749;-61
2023/11/07 11:01:40;;;;;;;7.78;3.38;;;;;;;;;;4129473;28;20069;-61
2023/11/07 11:03:44;;;;;;;8.60;3.33;;;;;;;;;;4132253;28;20045;-61
2023/11/07 11:05:47;;;;;;;4.57;1.30;;;;;;;;;;4129179;28;20350;-61
2023/11/07 11:07:51;;;;;;;2.97;2.00;;;;;;;;;;4130170;28;20050;-61
2023/11/07 11:09:55;;;;;;;3.22;1.25;;;;;;;;;;4131362;28;20498;-61
2023/11/07 11:11:58;;;;;;;1.38;1.10;;;;;;;;;;4131960;28;20049;-61
2023/11/07 11:14:03;;;;;;;1.98;1.60;;;;;;;;;;4125913;28;20077;-61
2023/11/07 11:16:07;;;;;;;1.95;1.85;;;;;;;;;;4134762;28;20517;-62
2023/11/07 11:18:18;;;;;;;4.20;3.58;;;;;;;;;;4129716;28;20039;-61
2023/11/07 11:20:37;;;;;;;1.20;1.20;;;;;;;;;;4130017;28;20488;-61
2023/11/07 11:22:46;;;;;;;1.17;1.02;;;;;;;;;;4131387;28;20418;-61
2023/11/07 11:24:53;;;;;;;1.95;1.20;;;;;;;;;;4125537;28;20027;-61
2023/11/07 11:27:03;;;;;;;1.70;1.10;;;;;;;;;;4109639;28;20046;-61
2023/11/07 11:29:24;;;;;;;1.10;1.10;;;;;;;;;;4129606;28;20043;-61
2023/11/07 11:31:27;;;;;;;3.50;1.20;;;;;;;;;;4126450;28;20050;-61
2023/11/07 11:33:29;;;;;;;1.95;1.08;;;;;;;;;;4129372;28;20044;-60
2023/11/07 11:35:31;;;;;;;1.58;1.10;;;;;;;;;;4131826;28;20088;-61
2023/11/07 11:37:51;;;;;;;1.00;0.90;;;;;;;;;;4130893;28;20034;-61
2023/11/07 11:39:53;;;;;;;0.90;0.90;;;;;;;;;;4115295;28;20061;-61
2023/11/07 11:41:56;;;;;;;1.42;1.00;;;;;;;;;;4127988;28;20038;-61
2023/11/07 11:44:12;;;;;;;1.17;0.90;;;;;;;;;;4131575;28;20045;-61
2023/11/07 11:46:14;;;;;;;1.40;1.30;;;;;;;;;;4114311;28;20038;-61
2023/11/07 11:48:18;;;;;;;2.08;1.23;;;;;;;;;;4118936;28;20061;-60
2023/11/07 11:50:20;;;;;;;1.75;0.98;;;;;;;;;;4131647;28;20168;-61
2023/11/07 11:52:34;;;;;;;2.83;1.30;;;;;;;;;;4129817;28;20047;-61
2023/11/07 11:54:38;;;;;;;2.15;1.00;;;;;;;;;;4129553;28;20042;-61
2023/11/07 11:56:51;;;;;;;1.17;1.00;;;;;;;;;;4131887;28;20561;-61
2023/11/07 11:59:15;;;;;;;2.22;1.10;;;;;;;;;;4130513;28;20084;-61
2023/11/07 12:01:17;;;;;;;2.65;1.25;;;;;;;;;;4130502;28;20464;-60
2023/11/07 12:03:23;;;;;;;3.78;1.30;;;;;;;;;;4130779;28;20064;-62
2023/11/07 12:05:27;;;;;;;3.00;1.00;;;;;;;;;;4122476;28;20035;-62
2023/11/07 12:07:28;;;;;;;1.65;0.90;;;;;;;;;;4130060;28;20042;-61
2023/11/07 12:09:30;;;;;;;2.58;1.00;;;;;;;;;;4128559;28;20042;-62
2023/11/07 12:11:42;;;;;;;3.42;1.10;;;;;;;;;;4132605;28;20041;-62
2023/11/07 12:13:47;;;;;;;5.93;1.20;;;;;;;;;;4113784;28;20039;-61
2023/11/07 12:15:49;;;;;;;1.75;1.30;;;;;;;;;;4131349;28;20521;-62
2023/11/07 12:17:51;;;;;;;1.73;1.10;;;;;;;;;;4122444;28;20045;-61
2023/11/07 12:20:03;;;;;;;2.30;1.35;;;;;;;;;;4121073;28;20073;-61